Time;durP1;ratioP1;P1;durP2;ratioP2;P2;SDS_P1;SDS_P2;PMS_P1;PMS_P2;Temp;Humidity;BMP_temperature;BMP_pressure;BME280_temperature;BME280_humidity;BME280_pressure;Samples;Min_cycle;Max_cycle;Signal;HPM_P1;HPM_P2
2021/07/16 00:01:53;;;;;;;4.60;3.22;;;;;;;;;;5033805;28;20054;-85
2021/07/16 00:04:19;;;;;;;3.58;2.35;;;;;;;22.17;81.95;92937.91;5033602;28;20396;-85
2021/07/16 00:06:46;;;;;;;4.90;3.05;;;;;;;22.20;81.12;92929.47;5033928;28;20119;-85
2021/07/16 00:09:15;;;;;;;6.05;3.00;;;;;;;22.25;81.01;92926.78;5033597;28;20414;-86
2021/07/16 00:11:42;;;;;;;4.13;2.08;;;;;;;22.26;79.70;92914.47;5033633;28;20049;-86
2021/07/16 00:14:09;;;;;;;4.03;2.70;;;;;;;22.17;79.52;92901.28;5033420;28;20061;-85
2021/07/16 00:16:35;;;;;;;5.20;2.65;;;;;;;;;;5033510;28;20494;-85
2021/07/16 00:19:02;;;;;;;4.53;2.15;;;;;;;22.30;79.48;92902.34;5033212;28;20099;-85
2021/07/16 00:21:29;;;;;;;3.67;2.60;;;;;;;22.22;79.90;92911.66;5033358;28;20084;-85
2021/07/16 00:23:56;;;;;;;3.95;2.75;;;;;;;22.13;80.27;92905.56;5033580;28;20072;-85
2021/07/16 00:26:24;;;;;;;4.65;3.13;;;;;;;22.08;80.59;92900.41;5033468;28;20123;-85
2021/07/16 00:28:51;;;;;;;5.10;3.40;;;;;;;22.02;80.53;92894.47;5033334;28;20092;-85
2021/07/16 00:31:17;;;;;;;5.38;2.95;;;;;;;21.98;80.46;92890.91;5033086;28;20049;-85
2021/07/16 00:33:44;;;;;;;5.78;3.75;;;;;;;21.94;80.73;92890.69;5033301;28;20108;-85
2021/07/16 00:36:11;;;;;;;5.20;2.60;;;;;;;22.00;80.64;92888.78;5033356;28;20052;-86
2021/07/16 00:38:40;;;;;;;5.47;2.88;;;;;;;21.89;81.88;92904.63;5033089;28;20433;-86
2021/07/16 00:41:08;;;;;;;5.13;2.58;;;;;;;21.85;81.78;92915.97;5033079;28;20517;-85
2021/07/16 00:43:36;;;;;;;5.10;2.80;;;;;;;21.80;82.50;92913.44;5033171;28;20053;-85
2021/07/16 00:46:03;;;;;;;7.22;3.60;;;;;;;21.70;83.12;92920.38;5023693;28;20577;-85
2021/07/16 00:48:30;;;;;;;6.00;2.10;;;;;;;21.66;83.41;92911.53;5013321;28;20050;-85
2021/07/16 00:50:56;;;;;;;5.20;2.92;;;;;;;21.62;83.97;92911.31;5016579;28;20046;-85
2021/07/16 00:53:23;;;;;;;5.05;3.22;;;;;;;21.63;83.58;92902.41;5022651;28;20088;-86
2021/07/16 00:55:51;;;;;;;3.63;2.70;;;;;;;21.58;83.14;92899.13;5021721;28;20060;-84
2021/07/16 00:58:18;;;;;;;5.43;3.00;;;;;;;21.65;83.14;92902.13;5021970;28;20088;-86
2021/07/16 01:00:46;;;;;;;5.13;2.47;;;;;;;21.60;83.81;92896.97;5022236;28;20046;-86
2021/07/16 01:03:13;;;;;;;6.05;2.88;;;;;;;21.57;84.78;92903.56;5025740;28;20172;-86
2021/07/16 01:05:40;;;;;;;4.03;2.85;;;;;;;21.55;85.19;92905.69;5018256;28;20057;-86
2021/07/16 01:08:07;;;;;;;4.65;2.70;;;;;;;21.52;84.93;92911.47;5020957;28;20041;-85
2021/07/16 01:10:34;;;;;;;6.47;3.90;;;;;;;21.47;84.80;92908.94;5021891;28;20050;-86
2021/07/16 01:13:01;;;;;;;4.75;2.25;;;;;;;21.46;84.79;92899.56;5020686;28;20058;-84
2021/07/16 01:15:32;;;;;;;6.68;3.50;;;;;;;21.47;84.56;92904.50;5020655;28;20092;-86
2021/07/16 01:18:00;;;;;;;4.63;3.13;;;;;;;21.45;83.82;92893.56;5020260;28;20041;-87
2021/07/16 01:20:30;;;;;;;8.65;3.72;;;;;;;21.28;84.53;92877.66;5019893;28;20046;-86
2021/07/16 01:22:58;;;;;;;3.53;2.22;;;;;;;21.35;83.95;92891.09;5022035;28;20069;-86
2021/07/16 01:25:28;;;;;;;6.43;3.50;;;;;;;21.35;84.03;92891.09;5019022;28;20096;-86
2021/07/16 01:27:57;;;;;;;11.85;2.75;;;;;;;21.33;83.89;92880.16;5022828;28;20057;-86
2021/07/16 01:30:26;;;;;;;5.75;2.75;;;;;;;21.30;84.20;92876.28;5019325;28;20049;-86
2021/07/16 01:32:54;;;;;;;4.10;2.50;;;;;;;21.25;84.33;92872.97;5018964;28;20108;-85
2021/07/16 01:35:22;;;;;;;4.93;2.88;;;;;;;21.19;85.02;92859.19;5022424;28;20057;-85
2021/07/16 01:37:49;;;;;;;3.53;2.95;;;;;;;21.09;85.24;92862.75;5021629;28;20045;-86
2021/07/16 01:40:18;;;;;;;4.10;2.65;;;;;;;21.03;86.18;92863.88;5018942;28;20054;-86
2021/07/16 01:42:48;;;;;;;8.13;3.90;;;;;;;20.94;87.38;92866.38;5020670;28;20076;-86
2021/07/16 01:45:17;;;;;;;6.25;3.05;;;;;;;20.87;87.06;92865.94;5020648;28;20495;-86
2021/07/16 01:47:47;;;;;;;7.80;3.45;;;;;;;20.83;87.50;92861.25;5020362;28;20062;-86
2021/07/16 01:50:14;;;;;;;4.53;2.88;;;;;;;20.84;87.40;92862.03;5021486;28;20088;-86
2021/07/16 01:52:41;;;;;;;7.25;2.72;;;;;;;20.79;86.77;92846.44;5020946;28;20054;-86
2021/07/16 01:55:09;;;;;;;8.90;2.67;;;;;;;20.91;86.96;92857.25;5020343;28;20054;-85
2021/07/16 01:57:36;;;;;;;5.85;3.47;;;;;;;20.81;87.12;92852.16;5021503;28;20111;-86
2021/07/16 02:00:09;;;;;;;4.25;2.47;;;;;;;20.76;87.12;92847.78;5021994;28;20045;-86
2021/07/16 02:02:36;;;;;;;3.92;2.60;;;;;;;20.80;86.09;92864.44;5020806;28;20046;-86
2021/07/16 02:05:03;;;;;;;7.45;2.53;;;;;;;20.83;86.47;92863.09;5020268;28;20049;-86
2021/07/16 02:07:30;;;;;;;4.32;2.60;;;;;;;20.75;86.61;92848.84;5019976;28;20509;-86
2021/07/16 02:09:57;;;;;;;8.10;2.40;;;;;;;20.80;86.08;92855.81;5021075;28;20042;-86
2021/07/16 02:12:24;;;;;;;4.70;3.08;;;;;;;20.80;86.46;92866.25;5022011;28;20046;-86
2021/07/16 02:14:50;;;;;;;5.57;3.97;;;;;;;20.76;87.16;92865.25;5022454;28;20549;-86
2021/07/16 02:17:19;;;;;;;5.28;2.58;;;;;;;20.72;86.78;92867.66;5020992;28;20543;-86
2021/07/16 02:19:46;;;;;;;4.70;3.00;;;;;;;20.73;86.95;92863.22;5021762;28;20057;-85
2021/07/16 02:22:13;;;;;;;3.83;2.45;;;;;;;20.66;86.82;92850.53;5020279;28;20177;-86
2021/07/16 02:24:40;;;;;;;5.35;3.55;;;;;;;20.66;87.09;92850.53;5020605;28;20050;-86
2021/07/16 02:27:09;;;;;;;6.90;3.00;;;;;;;20.59;87.10;92837.81;5021649;28;20057;-85
2021/07/16 02:29:36;;;;;;;7.18;3.17;;;;;;;20.54;87.13;92850.94;5020370;28;20454;-86
2021/07/16 02:32:03;;;;;;;7.45;2.35;;;;;;;20.50;87.14;92853.31;5019958;28;20414;-86
2021/07/16 02:34:31;;;;;;;6.18;3.05;;;;;;;20.49;86.77;92857.00;5030851;28;20045;-87
2021/07/16 02:36:58;;;;;;;5.95;2.40;;;;;;;20.43;87.55;92852.91;5031080;28;20088;-86
2021/07/16 02:39:25;;;;;;;3.85;2.88;;;;;;;20.40;87.21;92851.63;5031161;28;20096;-86
2021/07/16 02:41:52;;;;;;;3.75;3.08;;;;;;;20.39;87.64;92846.69;5030875;28;20060;-87
2021/07/16 02:44:18;;;;;;;6.28;4.00;;;;;;;20.39;87.77;92846.69;5030861;28;20056;-86
2021/07/16 02:46:45;;;;;;;6.75;2.75;;;;;;;20.36;87.69;92842.03;5030785;28;20057;-86
2021/07/16 02:49:12;;;;;;;7.72;3.47;;;;;;;20.37;88.23;92841.75;5030817;28;20046;-86
2021/07/16 02:51:40;;;;;;;3.72;2.22;;;;;;;20.35;88.34;92850.91;5030828;28;20391;-86
2021/07/16 02:54:07;;;;;;;6.00;3.20;;;;;;;20.31;88.22;92848.06;5030683;28;20076;-86
2021/07/16 02:56:34;;;;;;;5.53;3.25;;;;;;;20.23;88.80;92846.88;5030836;28;20042;-86
2021/07/16 02:59:00;;;;;;;3.97;2.20;;;;;;;20.13;89.97;92839.16;5029100;28;20124;-86
2021/07/16 03:01:27;;;;;;;4.60;2.70;;;;;;;20.16;90.38;92849.03;5030597;28;20045;-87
2021/07/16 03:03:54;;;;;;;6.10;3.58;;;;;;;20.10;91.31;92852.75;5030944;28;20053;-87
2021/07/16 03:06:21;;;;;;;6.50;2.67;;;;;;;20.21;90.28;92854.19;5030626;28;20041;-86
2021/07/16 03:08:49;;;;;;;4.15;2.30;;;;;;;20.28;89.37;92859.09;5030735;28;20053;-86
2021/07/16 03:11:15;;;;;;;6.60;4.60;;;;;;;20.25;89.76;92862.22;5030526;28;20095;-86
2021/07/16 03:13:42;;;;;;;5.47;3.00;;;;;;;20.10;91.53;92869.19;5030769;28;20103;-86
2021/07/16 03:16:09;;;;;;;5.75;3.53;;;;;;;20.02;92.37;92872.38;5030748;28;20057;-86
2021/07/16 03:18:36;;;;;;;3.83;2.85;;;;;;;19.85;94.52;92870.19;5030844;28;20042;-86
2021/07/16 03:21:02;;;;;;;7.32;3.67;;;;;;;19.61;97.36;92871.72;5030564;28;20049;-87
2021/07/16 03:23:29;;;;;;;10.10;2.97;;;;;;;19.69;95.18;92869.56;5030650;28;20045;-87
2021/07/16 03:25:57;;;;;;;5.35;3.15;;;;;;;19.74;94.05;92862.47;5030196;28;20555;-86
2021/07/16 03:28:24;;;;;;;3.38;3.00;;;;;;;19.84;93.14;92853.00;5030422;28;20056;-87
2021/07/16 03:30:51;;;;;;;7.97;3.63;;;;;;;19.96;92.29;92863.88;5030633;28;20053;-87
2021/07/16 03:33:17;;;;;;;7.32;4.50;;;;;;;20.02;91.79;92865.34;5030656;28;20115;-88
2021/07/16 03:35:44;;;;;;;5.47;2.97;;;;;;;19.94;92.24;92859.94;5030520;28;20049;-86
2021/07/16 03:38:11;;;;;;;6.93;3.85;;;;;;;20.00;91.84;92874.50;5030532;28;20486;-86
2021/07/16 03:40:38;;;;;;;7.03;2.85;;;;;;;20.03;92.35;92874.72;5030230;28;20080;-86
2021/07/16 03:43:06;;;;;;;4.90;3.05;;;;;;;20.08;91.99;92873.13;5030230;28;20414;-87
2021/07/16 03:45:33;;;;;;;5.40;2.80;;;;;;;20.07;91.90;92864.50;5030343;28;20050;-86
2021/07/16 03:48:00;;;;;;;5.75;3.83;;;;;;;20.11;91.58;92867.34;5030371;28;20099;-87
2021/07/16 03:50:26;;;;;;;9.25;3.47;;;;;;;20.14;91.26;92864.94;5030357;28;20058;-86
2021/07/16 03:52:53;;;;;;;8.50;3.78;;;;;;;20.12;91.73;92864.47;5030160;28;20046;-86
2021/07/16 03:55:20;;;;;;;9.43;3.05;;;;;;;20.16;91.46;92875.91;5032190;28;20053;-86
2021/07/16 03:57:48;;;;;;;8.98;4.75;;;;;;;20.21;90.60;92875.06;5034106;28;20103;-86
2021/07/16 04:00:19;;;;;;;4.20;2.63;;;;;;;20.18;91.03;92869.63;5033854;28;20069;-85
2021/07/16 04:02:46;;;;;;;3.97;2.55;;;;;;;20.22;90.32;92852.38;5033888;28;20049;-86
2021/07/16 04:05:13;;;;;;;7.15;4.00;;;;;;;20.32;89.72;92854.84;5033947;28;20053;-86
2021/07/16 04:07:46;;;;;;;4.82;2.83;;;;;;;20.42;89.12;92867.00;5033807;28;20053;-85
2021/07/16 04:10:14;;;;;;;4.50;3.20;;;;;;;20.41;89.03;92847.19;5033591;28;20077;-87
2021/07/16 04:12:41;;;;;;;8.63;4.88;;;;;;;20.48;88.92;92855.44;5033791;28;20045;-86
2021/07/16 04:15:08;;;;;;;5.88;2.78;;;;;;;20.59;88.46;92866.53;5033409;28;20049;-86
2021/07/16 04:17:37;;;;;;;5.78;2.92;;;;;;;20.62;88.65;92865.97;5033434;28;20053;-86
2021/07/16 04:20:05;;;;;;;5.78;3.38;;;;;;;20.67;88.62;92863.31;5033557;28;20057;-86
2021/07/16 04:22:32;;;;;;;5.15;3.25;;;;;;;20.75;88.27;92869.72;5033259;28;20577;-87
2021/07/16 04:24:58;;;;;;;5.20;3.20;;;;;;;20.85;87.63;92862.78;5033807;28;20045;-85
2021/07/16 04:27:25;;;;;;;5.10;3.25;;;;;;;20.91;88.29;92869.53;5033299;28;20058;-84
2021/07/16 04:29:52;;;;;;;6.10;3.42;;;;;;;20.95;88.04;92862.69;5033669;28;20045;-85
2021/07/16 04:32:19;;;;;;;3.33;2.28;;;;;;;20.98;88.03;92863.97;5033398;28;20057;-85
2021/07/16 04:34:47;;;;;;;6.28;3.80;;;;;;;21.07;87.71;92860.41;5032213;28;20060;-85
2021/07/16 04:37:14;;;;;;;8.10;4.53;;;;;;;21.13;87.65;92855.13;5015157;28;20555;-84
2021/07/16 04:39:41;;;;;;;4.28;3.08;;;;;;;21.24;87.44;92861.75;5013638;28;20054;-84
2021/07/16 04:42:08;;;;;;;5.22;2.70;;;;;;;21.33;86.36;92856.63;5013537;28;20042;-84
2021/07/16 04:44:35;;;;;;;4.93;3.08;;;;;;;21.40;85.65;92851.06;5013531;28;20042;-84
2021/07/16 04:47:02;;;;;;;7.90;3.70;;;;;;;21.48;85.53;92848.56;5013182;28;20580;-84
2021/07/16 04:49:29;;;;;;;6.50;3.55;;;;;;;21.62;85.10;92853.06;5013084;28;20498;-85
2021/07/16 04:51:59;;;;;;;6.20;3.72;;;;;;;21.61;84.99;92835.81;5013410;28;20046;-85
2021/07/16 04:54:26;;;;;;;5.15;3.70;;;;;;;21.75;84.75;92847.09;5013084;28;20046;-85
2021/07/16 04:56:53;;;;;;;5.95;3.42;;;;;;;21.87;85.24;92848.47;5013173;28;20065;-85
2021/07/16 04:59:19;;;;;;;13.40;4.18;;;;;;;21.89;82.79;92838.47;5013191;28;20136;-84
2021/07/16 05:01:48;;;;;;;6.70;3.45;;;;;;;22.16;83.07;92850.03;5012983;28;20049;-84
2021/07/16 05:04:15;;;;;;;4.30;2.92;;;;;;;22.22;82.27;92854.09;5012803;28;20050;-85
2021/07/16 05:06:41;;;;;;;8.48;3.53;;;;;;;22.34;82.62;92853.63;5011822;28;20050;-84
2021/07/16 05:09:10;;;;;;;19.23;4.57;;;;;;;22.45;81.76;92854.16;5013067;28;20076;-84
2021/07/16 05:11:36;;;;;;;7.65;4.82;;;;;;;22.51;81.34;92847.00;5012901;28;20454;-84
2021/07/16 05:14:03;;;;;;;9.57;4.38;;;;;;;22.63;81.09;92842.06;5012714;28;20061;-84
2021/07/16 05:16:30;;;;;;;16.55;7.32;;;;;;;22.73;80.65;92838.44;5012508;28;20493;-85
2021/07/16 05:18:57;;;;;;;10.27;6.00;;;;;;;22.87;80.00;92838.41;5012432;28;20053;-85
2021/07/16 05:21:24;;;;;;;12.25;6.38;;;;;;;22.98;79.76;92838.19;5012836;28;20042;-84
2021/07/16 05:23:50;;;;;;;14.98;6.13;;;;;;;22.96;79.06;92813.06;5012939;28;20089;-85
2021/07/16 05:26:19;;;;;;;6.18;4.45;;;;;;;23.17;77.35;92819.69;5012302;28;20057;-84
2021/07/16 05:28:48;;;;;;;9.80;5.57;;;;;;;23.35;78.12;92828.47;5012573;28;20064;-84
2021/07/16 05:31:15;;;;;;;7.63;4.05;;;;;;;23.45;77.55;92828.22;5012456;28;20081;-84
2021/07/16 05:33:42;;;;;;;7.68;4.43;;;;;;;23.65;75.64;92822.78;5012400;28;20046;-84
2021/07/16 05:36:09;;;;;;;8.52;4.97;;;;;;;23.84;74.80;92828.56;5012415;28;20057;-84
2021/07/16 05:38:37;;;;;;;7.50;4.75;;;;;;;23.94;73.91;92818.88;5012386;28;20049;-84
2021/07/16 05:41:04;;;;;;;16.67;8.07;;;;;;;23.96;74.12;92798.34;5012223;28;20054;-84
2021/07/16 05:43:32;;;;;;;8.02;3.65;;;;;;;24.17;73.69;92814.34;5012239;28;20050;-85
2021/07/16 05:45:59;;;;;;;11.35;5.22;;;;;;;24.20;73.43;92805.09;5011969;28;20052;-85
2021/07/16 05:48:26;;;;;;;6.75;4.30;;;;;;;24.12;74.14;92812.63;5012367;28;20047;-84
2021/07/16 05:50:53;;;;;;;8.40;5.13;;;;;;;23.86;75.18;92821.16;5012071;28;20442;-84
2021/07/16 05:53:20;;;;;;;16.70;5.55;;;;;;;24.12;73.66;92817.13;5012147;28;20050;-84
2021/07/16 05:55:47;;;;;;;9.07;4.07;;;;;;;24.38;72.28;92814.56;5011953;28;20085;-84
2021/07/16 05:58:13;;;;;;;9.05;4.97;;;;;;;24.65;71.76;92817.22;5011816;28;20092;-83
2021/07/16 06:00:41;;;;;;;8.70;3.97;;;;;;;24.80;70.26;92813.34;5011886;28;20053;-83
2021/07/16 06:03:09;;;;;;;9.07;3.72;;;;;;;25.02;69.95;92812.47;5012048;28;20053;-85
2021/07/16 06:05:36;;;;;;;8.65;5.38;;;;;;;24.88;70.10;92817.09;5011950;28;20046;-84
2021/07/16 06:08:04;;;;;;;6.72;3.53;;;;;;;25.18;67.05;92819.88;5011710;28;20049;-84
2021/07/16 06:10:32;;;;;;;6.80;4.07;;;;;;;25.18;66.59;92817.25;5011863;28;20509;-84
2021/07/16 06:12:59;;;;;;;7.32;3.17;;;;;;;25.46;65.28;92811.63;5011661;28;20049;-84
2021/07/16 06:15:26;;;;;;;3.78;2.15;;;;;;;25.85;64.27;92812.47;5011843;28;20053;-84
2021/07/16 06:17:55;;;;;;;4.55;2.17;;;;;;;25.57;63.76;92814.72;5011282;28;20041;-84
2021/07/16 06:20:22;;;;;;;3.40;2.25;;;;;;;25.86;63.68;92810.59;5011737;28;20050;-84
2021/07/16 06:22:49;;;;;;;4.13;2.67;;;;;;;26.07;61.74;92807.25;5011546;28;20092;-84
2021/07/16 06:25:18;;;;;;;2.88;1.65;;;;;;;25.75;63.41;92807.56;5011358;28;20045;-84
2021/07/16 06:27:45;;;;;;;4.57;2.83;;;;;;;26.27;62.48;92808.41;5011630;28;20057;-84
2021/07/16 06:30:14;;;;;;;7.07;2.47;;;;;;;26.48;59.77;92805.81;5011406;28;20100;-84
2021/07/16 06:32:41;;;;;;;3.08;1.85;;;;;;;26.81;58.81;92799.09;5011483;28;20050;-84
2021/07/16 06:35:10;;;;;;;3.90;2.20;;;;;;;26.87;57.39;92800.44;5011349;28;20050;-84
2021/07/16 06:37:37;;;;;;;4.20;2.22;;;;;;;26.88;57.97;92793.31;5011386;28;20058;-84
2021/07/16 06:40:05;;;;;;;2.92;1.92;;;;;;;26.99;58.10;92801.63;5011261;28;20195;-85
2021/07/16 06:42:32;;;;;;;4.47;1.90;;;;;;;27.31;56.08;92794.03;5011356;28;20483;-85
2021/07/16 06:44:59;;;;;;;4.35;1.95;;;;;;;27.03;56.02;92792.72;5011295;28;20050;-82
2021/07/16 06:47:26;;;;;;;3.92;2.33;;;;;;;27.11;56.55;92788.47;5011371;28;20100;-82
2021/07/16 06:49:53;;;;;;;3.38;2.05;;;;;;;27.15;55.70;92780.69;5011184;28;20084;-84
2021/07/16 06:52:21;;;;;;;3.78;2.40;;;;;;;27.52;54.58;92790.56;5011080;28;20064;-82
2021/07/16 06:54:48;;;;;;;3.20;1.65;;;;;;;27.55;53.49;92785.41;5010925;28;20049;-82
2021/07/16 06:57:15;;;;;;;2.78;1.73;;;;;;;27.88;53.61;92783.81;5010921;28;20053;-84
2021/07/16 06:59:42;;;;;;;2.90;2.00;;;;;;;28.08;52.87;92784.81;5011192;28;20057;-83
2021/07/16 07:02:09;;;;;;;2.90;2.00;;;;;;;28.30;53.36;92782.06;5011037;28;20050;-83
2021/07/16 07:04:36;;;;;;;4.88;2.10;;;;;;;28.54;53.36;92784.69;5011031;28;20104;-83
2021/07/16 07:07:04;;;;;;;4.15;2.45;;;;;;;28.63;51.09;92784.56;5010986;28;20057;-82
2021/07/16 07:09:32;;;;;;;3.95;2.70;;;;;;;29.25;49.68;92786.22;5010860;28;20048;-83
2021/07/16 07:11:59;;;;;;;2.55;1.65;;;;;;;29.01;47.96;92787.13;5011008;28;20057;-84
2021/07/16 07:14:26;;;;;;;3.25;2.05;;;;;;;29.03;46.27;92774.31;5011087;28;20061;-83
2021/07/16 07:16:53;;;;;;;2.83;1.73;;;;;;;29.39;47.78;92771.84;5010681;28;20049;-84
2021/07/16 07:19:19;;;;;;;2.55;1.70;;;;;;;29.80;47.69;92784.94;5010964;28;20049;-83
2021/07/16 07:21:46;;;;;;;7.18;2.55;;;;;;;30.16;46.90;92779.75;5010703;28;20058;-84
2021/07/16 07:24:13;;;;;;;3.20;2.00;;;;;;;30.40;44.19;92760.19;5011082;28;20053;-84
2021/07/16 07:26:41;;;;;;;3.40;1.98;;;;;;;30.16;44.71;92766.50;5010815;28;20065;-83
2021/07/16 07:29:08;;;;;;;3.60;1.60;;;;;;;30.04;44.91;92772.63;5011056;28;20054;-84
2021/07/16 07:31:35;;;;;;;2.90;1.85;;;;;;;30.66;44.43;92777.38;5014997;28;20053;-84
2021/07/16 07:34:02;;;;;;;2.70;1.38;;;;;;;30.94;43.05;92773.78;5014632;28;20061;-84
2021/07/16 07:36:29;;;;;;;5.13;2.35;;;;;;;31.11;43.77;92772.59;5014676;28;20072;-85
2021/07/16 07:38:56;;;;;;;3.78;2.25;;;;;;;31.41;43.64;92765.94;5014787;28;20372;-83
2021/07/16 07:41:23;;;;;;;3.35;1.45;;;;;;;31.46;41.61;92768.28;5014752;28;20049;-83
2021/07/16 07:43:53;;;;;;;4.45;2.78;;;;;;;30.94;42.18;92776.44;5014355;28;20050;-83
2021/07/16 07:46:20;;;;;;;3.20;2.55;;;;;;;30.72;42.82;92769.97;5014341;28;20092;-82
2021/07/16 07:48:47;;;;;;;3.47;1.58;;;;;;;30.92;43.80;92762.78;5014230;28;20572;-80
2021/07/16 07:51:14;;;;;;;3.33;1.98;;;;;;;31.39;42.37;92768.19;5014419;28;20049;-83
2021/07/16 07:53:41;;;;;;;11.63;1.80;;;;;;;31.70;41.54;92764.53;5014232;28;20050;-83
2021/07/16 07:56:07;;;;;;;3.83;2.05;;;;;;;31.79;40.68;92763.53;5014135;28;20457;-84
2021/07/16 07:58:34;;;;;;;3.05;1.92;;;;;;;31.98;41.29;92750.19;5014344;28;20046;-83
2021/07/16 08:01:02;;;;;;;2.80;2.03;;;;;;;32.18;39.67;92757.28;5014047;28;20050;-82
2021/07/16 08:03:29;;;;;;;3.00;2.03;;;;;;;31.30;42.57;92758.56;5017677;28;20092;-82
2021/07/16 08:05:56;;;;;;;5.60;2.75;;;;;;;31.32;42.28;92756.31;5023776;28;20045;-83
2021/07/16 08:08:23;;;;;;;3.28;1.80;;;;;;;31.70;42.55;92761.88;5023712;28;20399;-81
2021/07/16 08:10:50;;;;;;;3.75;1.98;;;;;;;32.15;41.63;92753.44;5022402;28;20088;-83
2021/07/16 08:13:16;;;;;;;3.53;1.90;;;;;;;32.55;39.33;92753.25;5023624;28;20052;-84
2021/07/16 08:15:43;;;;;;;3.35;2.20;;;;;;;32.87;40.03;92752.88;5023613;28;20108;-86
2021/07/16 08:18:11;;;;;;;3.60;2.30;;;;;;;33.15;38.45;92741.81;5021957;28;20436;-84
2021/07/16 08:20:38;;;;;;;2.53;1.67;;;;;;;33.52;37.25;92756.25;5023206;28;20041;-81
2021/07/16 08:23:05;;;;;;;3.47;2.20;;;;;;;33.14;38.80;92752.81;5023690;28;20057;-82
2021/07/16 08:25:34;;;;;;;6.20;2.53;;;;;;;32.09;39.97;92752.22;5022812;28;20049;-83
2021/07/16 08:28:01;;;;;;;7.20;2.47;;;;;;;31.98;39.56;92750.19;5024019;28;20049;-84
2021/07/16 08:30:28;;;;;;;4.93;3.45;;;;;;;31.81;40.11;92761.28;5022512;28;20058;-84
2021/07/16 08:32:55;;;;;;;3.85;2.50;;;;;;;32.27;40.38;92749.84;5021333;28;20552;-83
2021/07/16 08:35:23;;;;;;;7.60;2.10;;;;;;;32.51;40.48;92751.31;5013639;28;20045;-84
2021/07/16 08:37:50;;;;;;;3.35;2.28;;;;;;;33.05;38.29;92748.53;5013355;28;20058;-83
2021/07/16 08:40:17;;;;;;;4.47;3.05;;;;;;;33.38;38.06;92740.88;5013366;28;20096;-84
2021/07/16 08:42:47;;;;;;;4.07;2.15;;;;;;;33.41;37.01;92739.38;5013461;28;20442;-82
2021/07/16 08:45:15;;;;;;;3.30;2.72;;;;;;;33.54;36.42;92734.56;5023815;28;20045;-83
2021/07/16 08:47:42;;;;;;;4.78;2.20;;;;;;;33.78;36.44;92735.13;5032733;28;20453;-83
2021/07/16 08:50:11;;;;;;;3.55;2.60;;;;;;;33.88;36.40;92718.47;5033197;28;20053;-84
2021/07/16 08:52:43;;;;;;;4.05;2.38;;;;;;;34.32;35.45;92732.06;5032877;28;20045;-84
2021/07/16 08:55:10;;;;;;;6.28;3.10;;;;;;;34.11;34.50;92728.16;5032950;28;20136;-84
2021/07/16 08:57:39;;;;;;;6.00;3.05;;;;;;;33.89;34.86;92724.56;5032671;28;20049;-84
2021/07/16 09:00:07;;;;;;;4.60;3.00;;;;;;;34.11;36.43;92726.25;5033092;28;20413;-84
2021/07/16 09:02:35;;;;;;;3.85;2.38;;;;;;;34.54;36.93;92724.19;5024046;28;20046;-83
2021/07/16 09:05:06;;;;;;;5.65;3.22;;;;;;;34.95;35.59;92723.22;5012973;28;20046;-84
2021/07/16 09:07:47;;;;;;;5.20;2.75;;;;;;;35.20;33.98;92709.94;5012965;28;20494;-82
2021/07/16 09:10:14;;;;;;;3.78;2.63;;;;;;;35.33;34.80;92715.69;5012951;28;20068;-81
2021/07/16 09:12:41;;;;;;;3.85;2.45;;;;;;;35.58;33.13;92718.38;5012934;28;20092;-83
2021/07/16 09:15:13;;;;;;;3.40;2.55;;;;;;;35.27;32.85;92725.22;5012903;28;20054;-84
2021/07/16 09:17:42;;;;;;;4.53;2.92;;;;;;;35.48;33.98;92719.13;5012675;28;20046;-84
2021/07/16 09:20:22;;;;;;;3.42;2.33;;;;;;;35.67;32.34;92715.34;5013079;28;20052;-83
2021/07/16 09:23:07;;;;;;;3.85;2.30;;;;;;;35.68;31.68;92710.78;5012473;28;20149;-83
2021/07/16 09:25:34;;;;;;;3.95;2.35;;;;;;;34.80;33.42;92704.47;5012457;28;20457;-84
2021/07/16 09:28:01;;;;;;;6.22;2.95;;;;;;;34.15;35.01;92706.84;5012605;28;20100;-84
2021/07/16 09:30:29;;;;;;;6.32;3.28;;;;;;;34.11;35.45;92694.25;5012533;28;20054;-85
2021/07/16 09:32:58;;;;;;;3.42;2.22;;;;;;;34.02;35.20;92696.50;5012249;28;20046;-85
2021/07/16 09:35:27;;;;;;;5.00;2.85;;;;;;;34.44;34.51;92705.09;5012446;28;20400;-85
2021/07/16 09:37:59;;;;;;;4.10;2.92;;;;;;;34.56;35.13;92689.91;5012354;28;20058;-85
2021/07/16 09:40:29;;;;;;;3.78;2.78;;;;;;;34.62;33.95;92699.09;5032041;28;20107;-84
2021/07/16 09:43:01;;;;;;;8.05;3.63;;;;;;;34.84;34.45;92691.91;5032059;28;20107;-86
2021/07/16 09:45:28;;;;;;;5.20;2.42;;;;;;;34.09;34.35;92679.78;5031704;28;20056;-84
2021/07/16 09:47:55;;;;;;;3.15;2.40;;;;;;;34.43;33.78;92684.91;5031893;28;20497;-85
2021/07/16 09:50:25;;;;;;;6.22;3.38;;;;;;;34.76;34.04;92680.47;5031837;28;20057;-83
2021/07/16 09:53:16;;;;;;;3.70;2.90;;;;;;;35.25;33.76;92685.53;5031052;28;20483;-84
2021/07/16 09:55:43;;;;;;;4.63;2.50;;;;;;;34.04;34.94;92683.56;5031735;28;20229;-82
2021/07/16 09:58:28;;;;;;;4.60;2.67;;;;;;;32.24;37.93;92676.91;5031571;28;20091;-83
2021/07/16 10:00:56;;;;;;;7.25;3.72;;;;;;;32.26;37.91;92679.97;5031794;28;20049;-84
2021/07/16 10:03:23;;;;;;;4.03;2.65;;;;;;;31.92;39.01;92665.88;5031772;28;20119;-83
2021/07/16 10:05:51;;;;;;;6.85;3.50;;;;;;;31.77;40.18;92673.59;5031656;28;20092;-84
2021/07/16 10:08:20;;;;;;;4.85;3.08;;;;;;;32.22;39.58;92660.56;5031454;28;20127;-85
2021/07/16 10:10:49;;;;;;;4.68;2.85;;;;;;;32.46;38.86;92663.91;5031354;28;20567;-84
2021/07/16 10:13:16;;;;;;;4.22;3.50;;;;;;;32.38;39.33;92663.03;5031450;28;20119;-84
2021/07/16 10:15:44;;;;;;;4.95;3.17;;;;;;;32.19;39.67;92661.28;5031487;28;20064;-83
2021/07/16 10:18:11;;;;;;;4.55;3.25;;;;;;;32.28;39.40;92660.22;5031748;28;20445;-84
2021/07/16 10:20:38;;;;;;;6.00;2.97;;;;;;;32.50;39.64;92662.03;5031283;28;20048;-85
2021/07/16 10:23:06;;;;;;;7.63;2.90;;;;;;;32.61;39.84;92653.44;5031175;28;20383;-85
2021/07/16 10:25:35;;;;;;;5.35;3.78;;;;;;;32.84;39.92;92658.59;5031345;28;20115;-86
2021/07/16 10:28:02;;;;;;;3.58;1.88;;;;;;;32.72;38.81;92656.22;5030691;28;20481;-85
2021/07/16 10:30:35;;;;;;;3.03;2.20;;;;;;;32.63;39.38;92651.19;5030479;28;20053;-85
2021/07/16 10:33:02;;;;;;;3.55;2.25;;;;;;;32.78;39.65;92644.13;5030321;28;20390;-86
2021/07/16 10:35:31;;;;;;;4.90;2.40;;;;;;;33.19;38.91;92649.44;5030237;28;20096;-85
2021/07/16 10:37:59;;;;;;;5.60;3.05;;;;;;;33.38;37.34;92655.69;5030529;28;20414;-83
2021/07/16 10:40:51;;;;;;;5.18;3.45;;;;;;;33.85;37.28;92647.28;5010764;28;20050;-85
2021/07/16 10:43:40;;;;;;;3.80;2.67;;;;;;;34.22;36.10;92642.94;4995969;28;20054;-85
2021/07/16 10:46:29;;;;;;;8.48;3.97;;;;;;;34.81;35.27;92638.56;5010267;28;20502;-80
2021/07/16 10:48:56;;;;;;;4.68;2.78;;;;;;;34.86;34.76;92638.19;5023135;28;20054;-83
2021/07/16 10:51:25;;;;;;;3.80;2.95;;;;;;;35.10;35.94;92625.28;5016734;28;20049;-84
2021/07/16 10:53:52;;;;;;;7.32;4.03;;;;;;;35.48;35.18;92639.00;5015893;28;20140;-85
2021/07/16 10:56:20;;;;;;;13.52;4.03;;;;;;;35.84;34.08;92624.88;5019037;28;20084;-85
2021/07/16 10:58:50;;;;;;;3.42;2.70;;;;;;;35.92;32.75;92615.69;5016785;28;20052;-85
2021/07/16 11:01:32;;;;;;;4.03;2.42;;;;;;;35.81;33.52;92615.72;5020779;28;20077;-83
2021/07/16 11:04:01;;;;;;;4.20;2.63;;;;;;;35.65;33.04;92610.03;5008820;28;20046;-85
2021/07/16 11:06:54;;;;;;;5.95;3.13;;;;;;;35.67;33.49;92615.72;5020404;28;20459;-86
2021/07/16 11:09:38;;;;;;;3.83;2.70;;;;;;;35.56;33.19;92613.06;5020900;28;20127;-85
2021/07/16 11:12:27;;;;;;;4.80;2.65;;;;;;;35.33;33.72;92606.22;5019744;28;20050;-84
2021/07/16 11:14:55;;;;;;;5.65;2.88;;;;;;;34.96;34.32;92599.31;5018054;28;20529;-85
2021/07/16 11:17:33;;;;;;;4.53;2.53;;;;;;;35.05;33.35;92597.03;5029340;28;20060;-84
2021/07/16 11:20:14;;;;;;;4.40;3.05;;;;;;;34.57;34.84;92598.84;5021131;28;20046;-84
2021/07/16 11:23:04;;;;;;;4.63;3.03;;;;;;;34.24;35.07;92600.66;5027882;28;20045;-85
2021/07/16 11:25:32;;;;;;;4.20;3.28;;;;;;;33.95;35.58;92597.84;5029645;28;20050;-85
2021/07/16 11:28:00;;;;;;;4.03;2.70;;;;;;;33.68;36.58;92598.09;4989627;28;1173210;-84
2021/07/16 11:30:28;;;;;;;4.85;3.00;;;;;;;33.43;37.20;92583.50;5030631;28;20052;-83
2021/07/16 11:33:03;;;;;;;3.65;2.42;;;;;;;33.74;36.51;92595.84;5030440;28;20049;-84
2021/07/16 11:35:30;;;;;;;4.70;3.15;;;;;;;33.78;36.74;92597.38;5030486;28;20046;-85
2021/07/16 11:37:57;;;;;;;3.95;2.33;;;;;;;33.97;36.58;92591.00;5030274;28;20112;-84
2021/07/16 11:40:26;;;;;;;4.63;3.00;;;;;;;33.83;36.58;92581.06;5011881;28;20061;-84